Time;durP1;ratioP1;P1;durP2;ratioP2;P2;SDS_P1;SDS_P2;PMS_P1;PMS_P2;Temp;Humidity;BMP_temperature;BMP_pressure;BME280_temperature;BME280_humidity;BME280_pressure;Samples;Min_cycle;Max_cycle;Signal;HPM_P1;HPM_P2
2022/07/21 00:00:30;;;;;;;31.77;20.95;;;;;;;18.56;91.26;101625.84;5133537;27;20103;-44
2022/07/21 00:02:56;;;;;;;34.47;22.38;;;;;;;18.52;91.81;101633.66;5132959;27;20062;-46
2022/07/21 00:05:23;;;;;;;34.45;21.48;;;;;;;18.51;92.23;101624.06;5133794;28;20042;-46
2022/07/21 00:07:49;;;;;;;29.40;20.38;;;;;;;18.47;91.19;101625.78;5133921;28;20019;-47
2022/07/21 00:10:15;;;;;;;28.95;19.13;;;;;;;18.41;91.22;101626.59;5132826;28;20443;-44
2022/07/21 00:12:41;;;;;;;30.98;19.67;;;;;;;18.37;90.90;101621.31;5133475;28;20046;-44
2022/07/21 00:15:07;;;;;;;31.67;20.08;;;;;;;18.32;90.98;101623.00;5133527;28;20030;-44
2022/07/21 00:17:33;;;;;;;31.98;20.10;;;;;;;18.29;91.41;101631.69;5132675;28;20027;-47
2022/07/21 00:19:59;;;;;;;31.58;19.23;;;;;;;18.25;91.84;101630.78;5133515;28;20023;-46
2022/07/21 00:22:24;;;;;;;29.00;20.48;;;;;;;18.21;91.73;101629.00;5133442;28;20031;-46
2022/07/21 00:24:49;;;;;;;31.80;21.10;;;;;;;18.19;91.44;101627.22;5133412;27;20470;-45
2022/07/21 00:27:15;;;;;;;30.35;19.77;;;;;;;18.16;91.37;101629.81;5137531;27;20023;-45
2022/07/21 00:29:40;;;;;;;35.67;19.63;;;;;;;18.13;92.36;101637.59;5137634;27;20482;-46
2022/07/21 00:32:05;;;;;;;29.25;19.02;;;;;;;18.10;92.23;101633.22;5136689;27;20117;-45
2022/07/21 00:34:31;;;;;;;32.13;20.88;;;;;;;18.08;92.53;101630.59;5137524;27;20038;-47
2022/07/21 00:36:57;;;;;;;30.00;19.48;;;;;;;18.05;92.06;101627.06;5137598;27;20027;-45
2022/07/21 00:39:22;;;;;;;29.67;19.63;;;;;;;18.06;92.54;101634.94;5136726;27;20099;-46
2022/07/21 00:41:48;;;;;;;29.15;19.17;;;;;;;18.06;92.66;101634.06;5137528;27;20106;-45
2022/07/21 00:44:23;;;;;;;31.17;19.92;;;;;;;18.06;93.08;101637.56;5136273;27;20114;-48
2022/07/21 00:46:49;;;;;;;29.02;19.80;;;;;;;18.01;93.19;101635.72;5137698;27;20026;-46
2022/07/21 00:49:15;;;;;;;31.52;19.50;;;;;;;18.01;92.89;101628.81;5136995;27;20023;-44
2022/07/21 00:51:40;;;;;;;30.20;19.02;;;;;;;17.99;93.80;101627.91;5136769;27;20050;-47
2022/07/21 00:54:06;;;;;;;32.08;19.50;;;;;;;17.99;93.01;101625.28;5137147;27;20114;-45
2022/07/21 00:56:31;;;;;;;32.25;19.70;;;;;;;17.96;92.54;101630.47;5137074;27;20030;-46
2022/07/21 00:58:56;;;;;;;35.97;19.88;;;;;;;17.92;92.87;101626.03;5136201;27;20030;-49
2022/07/21 01:01:22;;;;;;;32.00;20.48;;;;;;;17.93;93.96;101622.59;5136865;27;20031;-44
2022/07/21 01:03:47;;;;;;;30.33;19.73;;;;;;;17.87;93.66;101625.09;5137182;27;20471;-44
2022/07/21 01:06:12;;;;;;;29.50;19.13;;;;;;;17.82;93.88;101614.63;5136208;27;20122;-44
2022/07/21 01:08:38;;;;;;;30.80;19.75;;;;;;;17.80;93.91;101610.25;5137058;27;20071;-45
2022/07/21 01:11:04;;;;;;;30.35;20.25;;;;;;;17.76;94.01;101598.91;5136713;27;20126;-44
2022/07/21 01:13:30;;;;;;;30.90;20.35;;;;;;;17.71;94.48;101604.06;5135927;27;20015;-45
2022/07/21 01:15:55;;;;;;;29.45;19.98;;;;;;;17.67;95.08;101594.44;5136892;27;20040;-46
2022/07/21 01:18:20;;;;;;;31.05;20.85;;;;;;;17.65;95.22;101601.41;5136759;27;20015;-48
2022/07/21 01:20:52;;;;;;;33.83;20.33;;;;;;;17.61;95.31;101599.59;5136068;27;20492;-44
2022/07/21 01:23:18;;;;;;;33.17;20.15;;;;;;;17.57;95.17;101598.69;5136492;27;20015;-44
2022/07/21 01:25:50;;;;;;;31.75;21.42;;;;;;;17.56;95.56;101591.72;5136696;27;20028;-47
2022/07/21 01:28:16;;;;;;;33.10;20.73;;;;;;;17.53;95.54;101602.13;5135811;27;20027;-45
2022/07/21 01:30:42;;;;;;;34.20;20.52;;;;;;;17.53;95.67;101596.00;5136680;27;20034;-47
2022/07/21 01:33:07;;;;;;;29.90;21.45;;;;;;;17.52;95.83;101587.34;5136417;27;20019;-44
2022/07/21 01:35:33;;;;;;;33.97;22.08;;;;;;;17.50;95.88;101591.63;5135374;27;20020;-46
2022/07/21 01:37:59;;;;;;;37.65;22.80;;;;;;;17.52;96.33;101604.69;5136336;27;20046;-44
2022/07/21 01:43:09;;;;;;;38.55;23.40;;;;;;;17.51;96.30;101602.97;5136310;27;20050;-44
2022/07/21 01:45:34;;;;;;;35.03;22.40;;;;;;;17.47;95.99;101599.44;5136215;27;20019;-45
2022/07/21 01:48:00;;;;;;;36.70;24.38;;;;;;;17.47;96.01;101596.81;5135452;27;20024;-44
2022/07/21 01:50:26;;;;;;;36.35;23.05;;;;;;;17.47;96.07;101598.53;5136078;27;20476;-45
2022/07/21 01:52:53;;;;;;;39.55;23.35;;;;;;;17.50;96.23;101598.59;5136054;27;20052;-46
2022/07/21 01:55:19;;;;;;;36.63;22.50;;;;;;;17.56;96.56;101590.88;5135189;27;20030;-45
2022/07/21 01:57:44;;;;;;;36.42;23.52;;;;;;;17.59;96.46;101593.50;5136155;27;20023;-45
2022/07/21 02:00:10;;;;;;;35.22;23.27;;;;;;;17.60;96.59;101608.28;5136098;27;20023;-45
2022/07/21 02:02:36;;;;;;;39.00;24.38;;;;;;;17.60;95.67;101603.06;5135457;27;20474;-48
2022/07/21 02:05:02;;;;;;;36.08;23.00;;;;;;;17.65;95.87;101606.63;5135785;27;20030;-46
2022/07/21 02:07:27;;;;;;;37.85;23.80;;;;;;;17.65;95.65;101603.13;5135775;27;20019;-44
2022/07/21 02:09:52;;;;;;;37.35;24.15;;;;;;;17.67;95.59;101599.66;5134964;27;20031;-44
2022/07/21 02:12:17;;;;;;;38.72;23.02;;;;;;;17.69;95.55;101612.72;5135296;27;20043;-47
2022/07/21 02:14:43;;;;;;;33.90;23.00;;;;;;;17.71;95.34;101611.88;5135747;27;20031;-45
2022/07/21 02:17:08;;;;;;;35.08;23.65;;;;;;;17.71;95.74;101601.44;5134694;27;20106;-46
2022/07/21 02:19:33;;;;;;;40.53;25.20;;;;;;;17.69;95.68;101608.41;5135532;27;20031;-45
2022/07/21 02:21:59;;;;;;;38.42;23.92;;;;;;;17.65;95.67;101601.41;5135403;27;20018;-44
2022/07/21 02:24:24;;;;;;;39.60;23.80;;;;;;;17.64;96.31;101602.25;5134562;27;20052;-45
2022/07/21 02:26:49;;;;;;;35.55;23.80;;;;;;;17.61;95.87;101599.59;5135742;27;20019;-46
2022/07/21 02:29:14;;;;;;;40.65;25.23;;;;;;;17.59;96.01;101591.75;5135394;27;20038;-48
2022/07/21 02:31:40;;;;;;;40.88;25.65;;;;;;;17.58;96.18;101590.03;5134800;27;20022;-45
2022/07/21 02:34:06;;;;;;;43.85;26.10;;;;;;;17.61;95.72;101587.44;5135216;27;20419;-46
2022/07/21 02:36:32;;;;;;;42.20;26.40;;;;;;;17.61;96.05;101594.38;5135085;27;20042;-46
2022/07/21 02:38:57;;;;;;;42.97;26.05;;;;;;;17.63;96.04;101592.66;5134396;27;20019;-45
2022/07/21 02:41:22;;;;;;;40.75;26.55;;;;;;;17.61;96.29;101583.94;5134942;27;20091;-44
2022/07/21 02:43:48;;;;;;;43.60;26.60;;;;;;;17.59;96.48;101588.28;5134451;27;20374;-46
2022/07/21 02:46:13;;;;;;;41.47;25.52;;;;;;;17.62;96.26;101590.91;5135240;27;20493;-45
2022/07/21 02:48:38;;;;;;;43.90;26.88;;;;;;;17.62;95.95;101585.69;5134335;27;20026;-47
2022/07/21 02:51:04;;;;;;;48.35;27.73;;;;;;;17.61;96.60;101583.94;5134233;27;20020;-47
2022/07/21 02:53:29;;;;;;;44.72;27.23;;;;;;;17.59;96.41;101583.06;5134669;27;20038;-45
2022/07/21 02:55:54;;;;;;;48.90;28.58;;;;;;;17.59;96.57;101580.47;5134923;27;20454;-45
2022/07/21 02:58:22;;;;;;;48.15;27.75;;;;;;;17.63;96.96;101576.16;5134058;27;20049;-45
2022/07/21 03:00:51;;;;;;;44.00;27.60;;;;;;;17.60;96.65;101571.78;5134952;27;20019;-45
2022/07/21 03:03:17;;;;;;;44.38;27.75;;;;;;;17.60;96.80;101588.28;5134424;27;20027;-44
2022/07/21 03:05:42;;;;;;;45.03;27.83;;;;;;;17.62;96.55;101580.50;5133996;27;20100;-44
2022/07/21 03:08:10;;;;;;;45.67;29.08;;;;;;;17.58;96.62;101583.91;5134394;27;20019;-45
2022/07/21 03:10:36;;;;;;;45.65;27.67;;;;;;;17.59;96.78;101583.06;5134644;27;20035;-44
2022/07/21 03:13:03;;;;;;;44.80;28.77;;;;;;;17.59;96.47;101580.47;5133534;27;20080;-44
2022/07/21 03:15:29;;;;;;;49.42;29.40;;;;;;;17.58;96.74;101577.00;5134507;27;20027;-44
2022/07/21 03:17:54;;;;;;;47.17;28.90;;;;;;;17.59;96.68;101577.84;5134444;27;20022;-49
2022/07/21 03:20:25;;;;;;;50.25;29.88;;;;;;;17.60;96.35;101579.63;5133380;27;20382;-44
2022/07/21 03:22:51;;;;;;;52.17;29.92;;;;;;;17.59;96.76;101575.25;5134221;27;20449;-46
2022/07/21 03:25:17;;;;;;;51.65;30.58;;;;;;;17.59;96.08;101580.47;5134222;27;20095;-44
2022/07/21 03:27:43;;;;;;;51.75;30.60;;;;;;;17.60;96.51;101577.00;5133662;27;20031;-45
2022/07/21 03:30:09;;;;;;;55.22;31.23;;;;;;;17.60;96.46;101580.47;5134249;27;20031;-46
2022/07/21 03:32:35;;;;;;;52.80;31.25;;;;;;;17.63;96.51;101578.78;5133912;27;20436;-44
2022/07/21 03:35:00;;;;;;;52.90;31.88;;;;;;;17.63;96.32;101582.25;5133242;27;20458;-44
2022/07/21 03:37:26;;;;;;;53.15;30.80;;;;;;;17.65;96.28;101583.16;5134008;27;20075;-44
2022/07/21 03:39:52;;;;;;;49.60;30.75;;;;;;;17.63;96.27;101571.81;5134179;27;20132;-49
2022/07/21 03:42:17;;;;;;;55.40;31.77;;;;;;;17.64;96.24;101577.91;5133387;27;20023;-46
2022/07/21 03:44:43;;;;;;;55.63;31.88;;;;;;;17.64;96.37;101584.00;5133988;27;20115;-49
2022/07/21 03:47:08;;;;;;;56.22;32.03;;;;;;;17.64;96.49;101581.41;5133330;27;20492;-44
2022/07/21 03:49:33;;;;;;;61.65;31.35;;;;;;;17.66;95.82;101579.66;5133759;27;20064;-46
2022/07/21 03:51:58;;;;;;;51.50;31.75;;;;;;;17.65;95.91;101590.97;5133731;27;20035;-44
2022/07/21 03:54:24;;;;;;;56.60;32.42;;;;;;;17.65;95.96;101593.56;5133115;27;20030;-48
2022/07/21 03:56:49;;;;;;;55.28;31.40;;;;;;;17.66;95.93;101595.31;5133910;27;20031;-45
2022/07/21 03:59:14;;;;;;;57.83;31.80;;;;;;;17.66;95.57;101597.03;5133483;27;20083;-45
2022/07/21 04:01:40;;;;;;;52.60;31.88;;;;;;;17.67;95.86;101599.66;5133045;27;20500;-47
2022/07/21 04:04:05;;;;;;;52.65;31.45;;;;;;;17.67;95.69;101598.81;5133636;27;20031;-45
2022/07/21 04:06:30;;;;;;;57.40;31.33;;;;;;;17.66;95.74;101595.31;5133429;28;20397;-45
2022/07/21 04:08:55;;;;;;;47.38;30.05;;;;;;;17.66;96.31;101595.31;5133056;28;20031;-45
2022/07/21 04:11:21;;;;;;;52.08;30.80;;;;;;;17.68;95.74;101600.56;5133321;28;20054;-46
2022/07/21 04:13:46;;;;;;;55.85;30.95;;;;;;;17.67;95.75;101597.06;5133523;28;20027;-45
2022/07/21 04:16:11;;;;;;;50.28;29.58;;;;;;;17.70;95.41;101598.81;5132724;28;20035;-47
2022/07/21 04:18:37;;;;;;;45.95;29.08;;;;;;;17.67;95.46;101594.44;5133480;28;20036;-46
2022/07/21 04:21:02;;;;;;;49.28;29.90;;;;;;;17.66;95.55;101592.69;5133426;28;20094;-45
2022/07/21 04:23:27;;;;;;;52.55;28.85;;;;;;;17.67;95.56;101594.44;5132847;28;20027;-44
2022/07/21 04:25:53;;;;;;;54.30;30.50;;;;;;;17.63;95.15;101592.66;5133715;28;20034;-46
2022/07/21 04:28:18;;;;;;;46.88;27.65;;;;;;;17.64;95.23;101591.81;5133367;28;20386;-46
2022/07/21 04:30:43;;;;;;;48.35;28.05;;;;;;;17.66;95.15;101592.69;5132843;28;20371;-44
2022/07/21 04:33:09;;;;;;;45.03;27.98;;;;;;;17.65;94.98;101585.75;5133301;28;20039;-44
2022/07/21 04:35:35;;;;;;;46.58;26.88;;;;;;;17.64;94.19;101586.59;5133274;28;20061;-45
2022/07/21 04:38:00;;;;;;;46.22;26.10;;;;;;;17.62;94.68;101577.88;5132819;28;20058;-47
2022/07/21 04:40:26;;;;;;;45.42;27.27;;;;;;;17.61;94.54;101582.22;5133278;28;20047;-45
2022/07/21 04:42:51;;;;;;;47.75;25.75;;;;;;;17.60;95.51;101590.91;5133833;28;20046;-47
2022/07/21 04:45:17;;;;;;;46.92;25.80;;;;;;;17.53;96.10;101596.00;5132318;28;20027;-45
2022/07/21 04:47:50;;;;;;;47.13;27.23;;;;;;;17.42;98.19;101588.94;5133338;28;20027;-46
2022/07/21 04:50:17;;;;;;;48.45;27.45;;;;;;;17.34;99.59;101590.56;5132152;28;20466;-45
2022/07/21 04:52:42;;;;;;;50.67;30.23;;;;;;;17.33;99.43;101593.16;5133237;28;20027;-45
2022/07/21 04:55:08;;;;;;;46.55;28.40;;;;;;;17.29;100.00;101594.84;5133273;28;20127;-46
2022/07/21 04:57:41;;;;;;;53.72;29.02;;;;;;;17.25;100.00;101601.75;5132417;28;20027;-49
2022/07/21 05:00:09;;;;;;;58.03;30.02;;;;;;;17.28;100.00;101606.13;5133125;28;20023;-44
2022/07/21 05:02:34;;;;;;;45.85;26.83;;;;;;;17.27;100.00;101601.75;5132923;28;20030;-47
2022/07/21 05:05:01;;;;;;;50.05;28.63;;;;;;;17.24;100.00;101599.97;5132528;28;20027;-46
2022/07/21 05:07:26;;;;;;;54.03;30.13;;;;;;;17.26;100.00;101607.81;5133109;28;20096;-48
2022/07/21 05:09:51;;;;;;;48.25;28.90;;;;;;;17.30;100.00;101607.03;5133391;28;20059;-44
2022/07/21 05:12:17;;;;;;;46.15;26.73;;;;;;;17.32;100.00;101599.22;5134620;27;20146;-44
2022/07/21 05:14:42;;;;;;;48.35;27.13;;;;;;;17.30;100.00;101604.41;5136662;27;20038;-45
2022/07/21 05:17:07;;;;;;;49.15;29.23;;;;;;;17.29;100.00;101597.47;5136725;27;20113;-45
2022/07/21 05:19:32;;;;;;;48.00;27.08;;;;;;;17.30;100.00;101587.91;5135755;27;20072;-44
2022/07/21 05:21:57;;;;;;;47.95;27.73;;;;;;;17.30;100.00;101588.78;5136798;27;20027;-45
2022/07/21 05:24:23;;;;;;;46.30;27.88;;;;;;;17.32;100.00;101589.66;5136626;27;20031;-44
2022/07/21 05:26:48;;;;;;;48.00;28.45;;;;;;;17.31;100.00;101598.34;5135991;27;20023;-45
2022/07/21 05:29:14;;;;;;;48.78;28.77;;;;;;;17.38;100.00;101596.72;5136276;27;20390;-48
2022/07/21 05:31:39;;;;;;;49.65;27.67;;;;;;;17.36;100.00;101591.44;5136509;27;20079;-47
2022/07/21 05:34:04;;;;;;;54.88;27.73;;;;;;;17.41;100.00;101589.78;5135540;27;20027;-45
2022/07/21 05:36:30;;;;;;;48.55;26.33;;;;;;;17.44;99.01;101589.84;5136378;27;20378;-45
2022/07/21 05:38:55;;;;;;;45.97;26.63;;;;;;;17.47;99.89;101590.72;5136413;27;20102;-44
2022/07/21 05:41:21;;;;;;;42.88;26.73;;;;;;;17.46;99.92;101595.06;5135521;27;20023;-45
2022/07/21 05:43:46;;;;;;;49.30;28.50;;;;;;;17.49;100.00;101594.22;5136252;27;20103;-44
2022/07/21 05:46:11;;;;;;;46.08;25.52;;;;;;;17.50;98.79;101590.78;5136157;27;20038;-48
2022/07/21 05:48:37;;;;;;;45.72;27.00;;;;;;;17.53;99.83;101594.31;5135250;27;20481;-45
2022/07/21 05:51:02;;;;;;;47.42;26.55;;;;;;;17.53;99.02;101593.41;5136188;27;20028;-46
2022/07/21 05:53:27;;;;;;;45.10;25.73;;;;;;;17.56;98.74;101591.72;5136006;27;20038;-45
2022/07/21 05:55:53;;;;;;;50.25;27.10;;;;;;;17.58;98.15;101589.13;5135458;27;20019;-46
2022/07/21 05:58:19;;;;;;;46.08;26.65;;;;;;;17.64;98.06;101588.31;5135895;27;20065;-44
2022/07/21 06:01:07;;;;;;;47.97;27.63;;;;;;;17.62;97.62;101590.91;5135160;27;20470;-43
2022/07/21 06:03:30;;;;;;;41.15;25.23;;;;;;;17.64;97.32;101594.44;5135582;27;20102;-47
2022/07/21 06:05:55;;;;;;;47.15;26.55;;;;;;;17.67;97.47;101588.38;5135868;27;20024;-45
2022/07/21 06:08:21;;;;;;;43.97;25.73;;;;;;;17.70;97.46;101584.09;5134941;27;20038;-46
2022/07/21 06:10:46;;;;;;;47.45;27.65;;;;;;;17.76;97.69;101599.78;5135691;27;20027;-44
2022/07/21 06:13:11;;;;;;;50.88;27.02;;;;;;;17.81;97.29;101586.81;5135410;27;20034;-45
2022/07/21 06:15:36;;;;;;;52.53;27.38;;;;;;;17.93;97.09;101592.19;5134973;27;20099;-45
2022/07/21 06:18:02;;;;;;;45.38;27.17;;;;;;;18.08;95.46;101586.25;5135779;27;20034;-44
2022/07/21 06:20:27;;;;;;;51.40;28.98;;;;;;;18.13;94.51;101583.72;5135616;27;20027;-44
2022/07/21 06:22:52;;;;;;;54.53;28.30;;;;;;;18.26;94.12;101584.69;5133746;27;20027;-45
2022/07/21 06:25:17;;;;;;;61.22;28.27;;;;;;;18.43;93.85;101587.47;5135060;27;20024;-46
2022/07/21 06:27:43;;;;;;;57.15;29.58;;;;;;;18.63;92.78;101586.75;5135419;27;20026;-45
2022/07/21 06:30:09;;;;;;;51.05;30.30;;;;;;;18.75;91.53;101584.25;5134559;27;20023;-44
2022/07/21 06:32:34;;;;;;;54.60;30.10;;;;;;;18.85;91.55;101580.84;5135109;27;20491;-49
2022/07/21 06:35:00;;;;;;;57.22;30.60;;;;;;;18.92;89.96;101589.63;5135311;27;20027;-45
2022/07/21 06:37:25;;;;;;;59.47;32.08;;;;;;;19.02;89.59;101587.94;5134473;27;20411;-44
2022/07/21 06:39:50;;;;;;;66.05;32.45;;;;;;;19.13;88.82;101590.63;5135137;27;20046;-44
2022/07/21 06:42:15;;;;;;;63.53;31.67;;;;;;;19.21;87.39;101600.25;5134947;27;20467;-47
2022/07/21 06:44:41;;;;;;;68.22;33.78;;;;;;;19.27;86.92;101598.53;5134295;27;20098;-44
2022/07/21 06:47:06;;;;;;;56.13;32.47;;;;;;;19.41;87.24;101600.34;5135177;27;20424;-45
2022/07/21 06:49:31;;;;;;;66.78;32.50;;;;;;;19.61;85.80;101603.94;5135001;27;20027;-44
2022/07/21 06:51:57;;;;;;;67.85;34.15;;;;;;;19.66;85.82;101604.81;5133958;27;20024;-45
2022/07/21 06:54:22;;;;;;;60.17;33.35;;;;;;;19.68;84.36;101609.19;5134702;27;20031;-44
2022/07/21 06:56:47;;;;;;;64.32;33.70;;;;;;;19.69;84.48;101600.47;5134804;27;20110;-46
2022/07/21 06:59:12;;;;;;;63.00;33.10;;;;;;;19.79;85.16;101603.13;5133766;27;20034;-46
2022/07/21 07:01:38;;;;;;;59.58;33.05;;;;;;;19.86;83.64;101610.16;5134798;27;20019;-44
2022/07/21 07:04:04;;;;;;;68.60;33.15;;;;;;;20.00;83.44;101608.47;5134048;27;20030;-43
2022/07/21 07:06:29;;;;;;;62.88;32.53;;;;;;;19.99;83.29;101617.19;5134461;27;20027;-45
2022/07/21 07:08:54;;;;;;;63.30;32.78;;;;;;;19.95;82.79;101620.66;5134727;27;20509;-45
2022/07/21 07:11:20;;;;;;;61.13;34.22;;;;;;;19.87;83.23;101622.34;5133460;27;20051;-43
2022/07/21 07:13:45;;;;;;;59.05;32.67;;;;;;;19.78;83.57;101622.28;5134451;27;20033;-44
2022/07/21 07:16:11;;;;;;;57.38;32.53;;;;;;;19.78;84.16;101611.84;5134159;27;20019;-45
2022/07/21 07:18:37;;;;;;;57.20;31.92;;;;;;;19.73;84.80;101609.22;5133603;27;20498;-43
2022/07/21 07:21:03;;;;;;;62.08;32.45;;;;;;;19.60;85.41;101617.88;5134480;27;20031;-43
2022/07/21 07:23:28;;;;;;;59.05;33.28;;;;;;;19.47;85.00;101616.94;5134319;27;20389;-47
2022/07/21 07:25:53;;;;;;;60.38;33.15;;;;;;;19.32;86.14;101618.59;5133605;27;20042;-45
2022/07/21 07:28:19;;;;;;;64.32;33.63;;;;;;;19.30;86.83;101625.56;5134142;27;20106;-46
2022/07/21 07:30:44;;;;;;;69.25;36.30;;;;;;;19.32;86.90;101617.75;5134274;27;20060;-44
2022/07/21 07:33:09;;;;;;;67.53;35.67;;;;;;;19.42;86.94;101620.41;5133507;27;20102;-45
2022/07/21 07:35:34;;;;;;;66.40;33.88;;;;;;;19.40;86.30;101614.28;5133861;27;20039;-44
2022/07/21 07:38:00;;;;;;;66.35;36.35;;;;;;;19.27;86.60;101625.53;5134224;27;20107;-45
2022/07/21 07:40:25;;;;;;;67.53;35.40;;;;;;;19.15;88.32;101620.25;5133219;27;20068;-45
2022/07/21 07:42:51;;;;;;;61.53;35.00;;;;;;;19.00;90.41;101616.66;5134071;27;20143;-44
2022/07/21 07:45:16;;;;;;;63.88;35.88;;;;;;;18.88;91.55;101616.56;5133668;27;20039;-46
2022/07/21 07:47:42;;;;;;;71.07;36.65;;;;;;;18.79;92.75;101622.56;5133537;27;20075;-44
2022/07/21 07:50:11;;;;;;;63.95;36.88;;;;;;;18.67;92.85;101622.47;5134059;27;20094;-47
2022/07/21 07:52:37;;;;;;;68.95;36.47;;;;;;;18.58;92.75;101618.91;5133970;27;20462;-45
2022/07/21 07:55:06;;;;;;;65.32;35.40;;;;;;;18.48;94.00;101621.44;5132983;27;20038;-45
2022/07/21 07:57:32;;;;;;;67.68;36.35;;;;;;;18.41;95.88;101625.72;5133564;27;20474;-44
2022/07/21 07:59:57;;;;;;;66.18;35.05;;;;;;;18.27;97.20;101617.78;5133663;27;20035;-45
2022/07/21 08:02:22;;;;;;;59.63;32.72;;;;;;;18.10;98.69;101625.41;5133110;27;20027;-44
2022/07/21 08:04:47;;;;;;;56.88;31.25;;;;;;;17.98;100.00;101625.28;5133921;27;20147;-45
2022/07/21 08:07:13;;;;;;;60.67;32.78;;;;;;;17.85;100.00;101629.44;5132704;28;20083;-45
2022/07/21 08:09:39;;;;;;;54.35;29.70;;;;;;;17.75;100.00;101631.03;5133759;28;20450;-44
2022/07/21 08:12:05;;;;;;;51.50;29.08;;;;;;;17.66;100.00;101629.19;5133430;28;20047;-48
2022/07/21 08:14:30;;;;;;;54.97;32.58;;;;;;;17.56;100.00;101625.59;5132588;28;20084;-49
2022/07/21 08:16:58;;;;;;;57.97;29.48;;;;;;;17.53;100.00;101637.72;5133715;28;20023;-45
2022/07/21 08:19:23;;;;;;;44.97;26.80;;;;;;;17.50;100.00;101637.69;5133594;28;20439;-47
2022/07/21 08:21:49;;;;;;;47.25;27.73;;;;;;;17.48;100.00;101639.38;5133012;28;20510;-45
2022/07/21 08:24:14;;;;;;;42.67;26.10;;;;;;;17.48;100.00;101634.19;5133412;28;20084;-49
2022/07/21 08:26:39;;;;;;;34.15;22.35;;;;;;;17.40;100.00;101632.34;5133586;28;20083;-45
2022/07/21 08:29:04;;;;;;;34.17;22.50;;;;;;;17.33;100.00;101635.72;5132785;28;20027;-44
2022/07/21 08:31:30;;;;;;;31.10;21.48;;;;;;;17.31;100.00;101637.41;5133383;28;20074;-45
2022/07/21 08:33:55;;;;;;;31.25;19.77;;;;;;;17.29;100.00;101623.50;5133448;28;20066;-44
2022/07/21 08:36:20;;;;;;;35.60;21.75;;;;;;;17.31;100.00;101628.72;5132704;28;20027;-46
2022/07/21 08:38:46;;;;;;;30.63;20.40;;;;;;;17.33;100.00;101630.50;5133558;28;20406;-44
2022/07/21 08:41:11;;;;;;;31.20;20.83;;;;;;;17.34;100.00;101629.66;5133244;28;20459;-47
2022/07/21 08:43:37;;;;;;;30.95;20.33;;;;;;;17.34;100.00;101640.09;5132559;28;20027;-45
2022/07/21 08:46:03;;;;;;;38.28;21.70;;;;;;;17.35;100.00;101636.63;5134322;27;20114;-45
2022/07/21 08:48:29;;;;;;;35.38;21.58;;;;;;;17.35;100.00;101635.72;5137215;27;20470;-45
2022/07/21 08:50:55;;;;;;;38.30;22.92;;;;;;;17.31;100.00;101632.19;5136642;27;20137;-44
2022/07/21 08:53:20;;;;;;;41.05;22.48;;;;;;;17.37;100.00;101637.50;5137171;27;20019;-46
2022/07/21 08:55:45;;;;;;;33.15;20.85;;;;;;;17.34;100.00;101632.25;5137257;27;20023;-45
2022/07/21 08:58:12;;;;;;;34.22;21.35;;;;;;;17.38;100.00;101634.06;5136131;27;20415;-46
2022/07/21 09:00:41;;;;;;;31.75;22.10;;;;;;;17.35;100.00;101627.91;5137198;27;20474;-45
2022/07/21 09:03:29;;;;;;;33.55;21.65;;;;;;;17.35;100.00;101630.53;5137148;27;20015;-42
2022/07/21 09:06:07;;;;;;;35.47;23.45;;;;;;;17.42;100.00;101634.97;5137015;27;20163;-43
2022/07/21 09:08:58;;;;;;;39.42;23.63;;;;;;;17.42;100.00;101635.84;5136897;27;20035;-44
2022/07/21 09:11:26;;;;;;;37.08;24.35;;;;;;;17.41;100.00;101634.09;5136030;27;20039;-42
2022/07/21 09:14:13;;;;;;;36.38;23.40;;;;;;;17.46;100.00;101630.69;5136928;27;20027;-43
2022/07/21 09:16:46;;;;;;;37.33;23.85;;;;;;;17.51;100.00;101639.44;5136821;27;20058;-43
2022/07/21 09:19:18;;;;;;;35.55;24.38;;;;;;;17.48;100.00;101637.69;5136058;27;20027;-42
2022/07/21 09:21:43;;;;;;;42.85;25.33;;;;;;;17.55;100.00;101638.63;5136690;27;20027;-42
2022/07/21 09:24:16;;;;;;;37.65;24.75;;;;;;;17.58;100.00;101649.97;5136754;27;20023;-42
2022/07/21 09:26:56;;;;;;;37.63;24.50;;;;;;;17.62;100.00;101645.66;5135963;27;20026;-41
2022/07/21 09:29:21;;;;;;;32.42;22.45;;;;;;;17.57;100.00;101647.31;5136371;27;20059;-45
2022/07/21 09:31:46;;;;;;;32.80;22.35;;;;;;;17.61;100.00;101643.91;5136075;27;20092;-44
2022/07/21 09:34:15;;;;;;;36.47;23.67;;;;;;;17.65;100.00;101658.75;5136218;27;20031;-46
2022/07/21 09:36:55;;;;;;;35.20;23.40;;;;;;;17.64;100.00;101651.78;5136553;27;20027;-46
2022/07/21 09:39:45;;;;;;;29.65;20.77;;;;;;;17.60;100.00;101663.03;5135653;27;20045;-42
2022/07/21 09:42:25;;;;;;;28.33;20.38;;;;;;;17.55;100.00;101662.09;5136374;27;20027;-43
2022/07/21 09:45:02;;;;;;;28.05;19.55;;;;;;;17.55;100.00;101667.28;5136198;27;20382;-44
2022/07/21 09:47:29;;;;;;;;;;;;;;;17.60;100.00;101665.63;5135919;27;20030;-44
2022/07/21 09:49:56;;;;;;;26.73;17.87;;;;;;;17.55;100.00;101662.09;5136083;27;19922;-43
2022/07/21 09:52:29;;;;;;;25.90;19.17;;;;;;;17.60;100.00;101661.28;5135958;27;20026;-42
2022/07/21 09:54:56;;;;;;;23.13;18.20;;;;;;;17.66;100.00;101670.03;5135417;27;20046;-43
2022/07/21 09:57:21;;;;;;;27.67;18.38;;;;;;;17.65;100.00;101669.19;5135878;27;20075;-43
2022/07/21 09:59:48;;;;;;;22.33;17.15;;;;;;;17.73;100.00;101674.50;5135424;27;20023;-44
2022/07/21 10:02:32;;;;;;;24.20;17.13;;;;;;;17.77;100.00;101674.53;5135712;27;20097;-43
2022/07/21 10:05:01;;;;;;;28.23;17.52;;;;;;;17.78;100.00;101680.63;5136054;27;20034;-42
2022/07/21 10:07:28;;;;;;;24.42;17.42;;;;;;;17.78;100.00;101678.03;5134858;27;20553;-44
2022/07/21 10:09:55;;;;;;;25.05;16.40;;;;;;;17.78;100.00;101673.69;5135645;27;20493;-43
2022/07/21 10:12:22;;;;;;;22.20;13.82;;;;;;;17.73;100.00;101688.38;5135528;27;20043;-44
2022/07/21 10:14:47;;;;;;;17.77;13.90;;;;;;;17.72;100.00;101691.84;5135006;27;20034;-43
2022/07/21 10:17:17;;;;;;;15.30;12.77;;;;;;;17.66;100.00;101689.16;5135428;27;20833;-44
2022/07/21 10:20:00;;;;;;;21.92;14.65;;;;;;;17.66;100.00;101691.75;5135823;27;20152;-42
2022/07/21 10:22:40;;;;;;;17.63;13.15;;;;;;;17.63;100.00;101691.72;5134833;27;20023;-44
2022/07/21 10:25:06;;;;;;;17.90;13.60;;;;;;;17.67;100.00;101695.25;5135341;27;20382;-41
2022/07/21 10:27:31;;;;;;;18.95;14.45;;;;;;;17.72;100.00;101702.28;5135309;27;20057;-42
2022/07/21 10:30:00;;;;;;;20.55;14.95;;;;;;;17.69;100.00;101699.63;5134842;27;20466;-43
2022/07/21 10:32:29;;;;;;;18.65;14.25;;;;;;;17.59;100.00;101705.56;5135412;27;20030;-45
2022/07/21 10:34:55;;;;;;;21.83;15.02;;;;;;;17.54;100.00;101707.25;5134331;27;20386;-43
2022/07/21 10:37:39;;;;;;;23.48;15.35;;;;;;;17.54;100.00;101717.66;5135220;27;20102;-44
2022/07/21 10:40:06;;;;;;;23.13;15.98;;;;;;;17.43;100.00;101722.72;5134964;27;20080;-47
2022/07/21 10:42:32;;;;;;;22.00;15.85;;;;;;;17.40;100.00;101715.75;5134326;27;20111;-45
2022/07/21 10:44:57;;;;;;;24.13;16.38;;;;;;;17.35;100.00;101721.72;5135104;27;20063;-47
2022/07/21 10:47:28;;;;;;;23.30;16.13;;;;;;;17.30;100.00;101719.06;5135060;27;20073;-42
2022/07/21 10:49:58;;;;;;;20.90;16.27;;;;;;;17.34;100.00;101720.84;5134318;27;20080;-43
2022/07/21 10:52:38;;;;;;;28.83;18.38;;;;;;;17.43;100.00;101723.59;5134797;27;20031;-45
2022/07/21 10:55:26;;;;;;;28.35;17.98;;;;;;;17.60;100.00;101717.75;5134902;27;20050;-43
2022/07/21 10:58:28;;;;;;;25.13;16.67;;;;;;;17.72;100.00;101724.88;5134218;27;20023;-44
2022/07/21 11:01:06;;;;;;;26.90;18.42;;;;;;;17.78;100.00;101717.16;5081256;27;20039;-44
2022/07/21 11:03:39;;;;;;;28.20;18.45;;;;;;;17.77;100.00;101721.47;5134061;27;20042;-43
2022/07/21 11:06:24;;;;;;;29.85;19.30;;;;;;;17.83;100.00;101719.78;5134757;27;20050;-44
2022/07/21 11:08:58;;;;;;;32.22;19.52;;;;;;;17.86;100.00;101722.47;5134210;27;20023;-46